Huvudsida
METAR-TAF:

METAR-TAF

Flygplatser :

Trevico, Italien

latitud: 41-03N, longitud: 015-14E, höjd: 1085 m

Aktuellt väderrapport

Denna rapport gjordes för 1 timme och 16 minuter sedan, klockan 21:55 UTC
Vind 14 kt från väst i byarna ända upp till 25 kt
Temperatur 3°C
Fuktighet 93%
Tryck 1009 hPa
Sikt under 50 m
dimma

METAR: LIRT 172155Z 26014G25KT 0000 FG VV/// 03/02 Q1009 RMK MON INVIS VAL INVIS VIS MIN 0000

Tid: 00:11 (23:11 UTC)


TAF: saknas

Aktuella väderrapporter och prognoser från 4000 flygplatser (METAR- och TAF-rapporter).

De tillgängliga stationerna syns som gula och röda prickar på kartan.

För musen över prickarna för att se namnen på stationerna.

Klicka sedan för att få väderrapporter och prognoser.

För att ändra kartan: Klicka på de gröna knapparna med ett svart kors på för att zooma in; den gröna knappen med ett streck på för att zooma ut; eller på de gröna pilarna för angränsande kartor.


METAR-TAF: